sensor_id;sensor_type;location;lat;lon;timestamp;pressure;altitude;pressure_sealevel;temperature;humidity
53960;BME280;39866;48.638;-2.020;2022-07-29T00:00:05;101396.00;;;23.30;62.47
53960;BME280;39866;48.638;-2.020;2022-07-29T00:02:30;101394.16;;;23.30;62.53
53960;BME280;39866;48.638;-2.020;2022-07-29T00:04:57;101400.75;;;23.39;62.43
53960;BME280;39866;48.638;-2.020;2022-07-29T00:07:22;101397.09;;;23.40;62.20
53960;BME280;39866;48.638;-2.020;2022-07-29T00:09:47;101384.16;;;23.31;62.32
53960;BME280;39866;48.638;-2.020;2022-07-29T00:12:12;101392.41;;;23.29;62.68
53960;BME280;39866;48.638;-2.020;2022-07-29T00:14:37;101400.25;;;23.21;62.89
53960;BME280;39866;48.638;-2.020;2022-07-29T00:17:03;101390.16;;;23.23;62.73
53960;BME280;39866;48.638;-2.020;2022-07-29T00:19:28;101392.09;;;23.21;63.25
53960;BME280;39866;48.638;-2.020;2022-07-29T00:21:53;101401.31;;;23.18;63.36
53960;BME280;39866;48.638;-2.020;2022-07-29T00:24:18;101407.00;;;23.15;63.70
53960;BME280;39866;48.638;-2.020;2022-07-29T00:26:44;101398.41;;;23.21;63.47
53960;BME280;39866;48.638;-2.020;2022-07-29T00:29:09;101394.94;;;23.19;63.86
53960;BME280;39866;48.638;-2.020;2022-07-29T00:31:34;101395.59;;;23.23;63.91
53960;BME280;39866;48.638;-2.020;2022-07-29T00:33:59;101402.53;;;23.14;64.33
53960;BME280;39866;48.638;-2.020;2022-07-29T00:36:24;101392.09;;;23.08;64.85
53960;BME280;39866;48.638;-2.020;2022-07-29T00:38:50;101389.41;;;23.08;64.76
53960;BME280;39866;48.638;-2.020;2022-07-29T00:41:16;101383.84;;;23.10;64.54
53960;BME280;39866;48.638;-2.020;2022-07-29T00:43:41;101387.22;;;23.13;64.67
53960;BME280;39866;48.638;-2.020;2022-07-29T00:46:07;101390.47;;;23.06;64.79
53960;BME280;39866;48.638;-2.020;2022-07-29T00:48:32;101387.34;;;23.12;64.61
53960;BME280;39866;48.638;-2.020;2022-07-29T00:50:58;101384.69;;;23.10;64.26
53960;BME280;39866;48.638;-2.020;2022-07-29T00:53:24;101386.22;;;23.14;64.51
53960;BME280;39866;48.638;-2.020;2022-07-29T00:55:49;101389.28;;;23.10;64.31
53960;BME280;39866;48.638;-2.020;2022-07-29T00:58:15;101396.00;;;23.17;64.35
53960;BME280;39866;48.638;-2.020;2022-07-29T01:00:40;101390.38;;;23.07;64.77
53960;BME280;39866;48.638;-2.020;2022-07-29T01:03:06;101381.91;;;22.99;65.59
53960;BME280;39866;48.638;-2.020;2022-07-29T01:05:31;101389.06;;;23.00;66.06
53960;BME280;39866;48.638;-2.020;2022-07-29T01:07:57;101387.22;;;23.01;65.91
53960;BME280;39866;48.638;-2.020;2022-07-29T01:10:23;101383.47;;;22.89;65.63
53960;BME280;39866;48.638;-2.020;2022-07-29T01:12:49;101386.03;;;22.92;65.82
53960;BME280;39866;48.638;-2.020;2022-07-29T01:15:14;101390.75;;;22.88;65.67
53960;BME280;39866;48.638;-2.020;2022-07-29T01:17:44;101380.91;;;23.00;64.86
53960;BME280;39866;48.638;-2.020;2022-07-29T01:30:34;101390.38;;;23.07;62.29
53960;BME280;39866;48.638;-2.020;2022-07-29T01:33:01;101385.69;;;23.09;62.33
53960;BME280;39866;48.638;-2.020;2022-07-29T01:35:33;101364.06;;;22.82;61.93
53960;BME280;39866;48.638;-2.020;2022-07-29T01:38:03;101376.88;;;23.06;61.71
53960;BME280;39866;48.638;-2.020;2022-07-29T01:42:55;101388.53;;;23.08;61.80
53960;BME280;39866;48.638;-2.020;2022-07-29T01:45:31;101388.09;;;23.01;61.48
53960;BME280;39866;48.638;-2.020;2022-07-29T01:48:03;101376.47;;;22.99;61.37
53960;BME280;39866;48.638;-2.020;2022-07-29T01:50:37;101389.47;;;22.94;61.72
53960;BME280;39866;48.638;-2.020;2022-07-29T01:53:07;101381.75;;;22.75;62.06
53960;BME280;39866;48.638;-2.020;2022-07-29T01:55:35;101381.72;;;22.62;61.98
53960;BME280;39866;48.638;-2.020;2022-07-29T01:58:02;101380.94;;;22.60;61.81
53960;BME280;39866;48.638;-2.020;2022-07-29T02:00:28;101382.47;;;22.52;62.01
53960;BME280;39866;48.638;-2.020;2022-07-29T02:02:54;101382.81;;;22.72;62.00
53960;BME280;39866;48.638;-2.020;2022-07-29T02:05:21;101379.44;;;22.82;61.91
53960;BME280;39866;48.638;-2.020;2022-07-29T02:07:47;101375.22;;;22.78;62.20
53960;BME280;39866;48.638;-2.020;2022-07-29T02:10:13;101383.69;;;22.73;62.50
53960;BME280;39866;48.638;-2.020;2022-07-29T02:12:39;101379.34;;;22.70;62.82
53960;BME280;39866;48.638;-2.020;2022-07-29T02:15:06;101375.53;;;22.60;62.76
53960;BME280;39866;48.638;-2.020;2022-07-29T02:17:37;101379.22;;;22.59;63.13
53960;BME280;39866;48.638;-2.020;2022-07-29T02:20:04;101382.81;;;22.60;63.13
53960;BME280;39866;48.638;-2.020;2022-07-29T02:22:31;101381.81;;;22.61;62.94
53960;BME280;39866;48.638;-2.020;2022-07-29T02:24:58;101382.47;;;22.64;62.98
53960;BME280;39866;48.638;-2.020;2022-07-29T02:27:24;101389.19;;;22.46;63.37
53960;BME280;39866;48.638;-2.020;2022-07-29T02:29:50;101389.06;;;22.47;63.33
53960;BME280;39866;48.638;-2.020;2022-07-29T02:32:16;101388.09;;;22.61;63.24
53960;BME280;39866;48.638;-2.020;2022-07-29T02:34:42;101385.09;;;22.66;62.97
53960;BME280;39866;48.638;-2.020;2022-07-29T02:37:11;101385.94;;;22.54;63.69
53960;BME280;39866;48.638;-2.020;2022-07-29T02:39:38;101387.56;;;22.56;64.78
53960;BME280;39866;48.638;-2.020;2022-07-29T02:42:05;101385.94;;;22.54;66.66
53960;BME280;39866;48.638;-2.020;2022-07-29T02:44:31;101382.66;;;22.48;67.71
53960;BME280;39866;48.638;-2.020;2022-07-29T02:47:04;101383.31;;;22.52;67.77
53960;BME280;39866;48.638;-2.020;2022-07-29T02:49:36;101390.25;;;22.43;67.48
53960;BME280;39866;48.638;-2.020;2022-07-29T02:52:10;101390.72;;;22.50;67.82
53960;BME280;39866;48.638;-2.020;2022-07-29T02:54:39;101391.13;;;22.44;68.50
53960;BME280;39866;48.638;-2.020;2022-07-29T02:57:11;101389.66;;;22.25;69.15
53960;BME280;39866;48.638;-2.020;2022-07-29T02:59:39;101392.63;;;22.35;68.72
53960;BME280;39866;48.638;-2.020;2022-07-29T03:02:07;101393.47;;;22.36;68.84
53960;BME280;39866;48.638;-2.020;2022-07-29T03:04:33;101387.31;;;22.34;68.66
53960;BME280;39866;48.638;-2.020;2022-07-29T03:06:59;101397.41;;;22.44;68.50
53960;BME280;39866;48.638;-2.020;2022-07-29T03:09:25;101393.63;;;22.47;68.38
53960;BME280;39866;48.638;-2.020;2022-07-29T03:11:51;101394.81;;;22.43;68.85
53960;BME280;39866;48.638;-2.020;2022-07-29T03:14:19;101394.13;;;22.27;68.72
53960;BME280;39866;48.638;-2.020;2022-07-29T03:16:44;101391.31;;;22.41;69.07
53960;BME280;39866;48.638;-2.020;2022-07-29T03:19:10;101397.06;;;22.36;69.33
53960;BME280;39866;48.638;-2.020;2022-07-29T03:21:35;101388.25;;;22.33;69.58
53960;BME280;39866;48.638;-2.020;2022-07-29T03:24:00;101391.81;;;22.20;69.93
53960;BME280;39866;48.638;-2.020;2022-07-29T03:26:26;101397.94;;;22.10;69.87
53960;BME280;39866;48.638;-2.020;2022-07-29T03:28:51;101394.22;;;22.25;69.40
53960;BME280;39866;48.638;-2.020;2022-07-29T03:31:16;101390.72;;;22.23;69.08
53960;BME280;39866;48.638;-2.020;2022-07-29T03:33:42;101388.44;;;22.17;69.29
53960;BME280;39866;48.638;-2.020;2022-07-29T03:36:07;101394.22;;;22.25;69.09
53960;BME280;39866;48.638;-2.020;2022-07-29T03:38:33;101402.09;;;22.15;69.43
53960;BME280;39866;48.638;-2.020;2022-07-29T03:41:01;101402.25;;;22.12;69.32
53960;BME280;39866;48.638;-2.020;2022-07-29T03:43:28;101393.47;;;22.09;69.38
53960;BME280;39866;48.638;-2.020;2022-07-29T03:45:55;101391.34;;;22.14;69.35
53960;BME280;39866;48.638;-2.020;2022-07-29T03:48:22;101398.41;;;22.16;69.92
53960;BME280;39866;48.638;-2.020;2022-07-29T03:50:49;101401.91;;;22.18;69.58
53960;BME280;39866;48.638;-2.020;2022-07-29T03:53:15;101400.94;;;22.05;69.75
53960;BME280;39866;48.638;-2.020;2022-07-29T03:55:41;101389.78;;;22.10;69.29
53960;BME280;39866;48.638;-2.020;2022-07-29T03:58:06;101383.13;;;22.15;69.07
53960;BME280;39866;48.638;-2.020;2022-07-29T04:00:33;101386.97;;;22.11;68.81
53960;BME280;39866;48.638;-2.020;2022-07-29T04:02:59;101380.41;;;22.15;68.48
53960;BME280;39866;48.638;-2.020;2022-07-29T04:05:24;101384.09;;;22.14;68.79
53960;BME280;39866;48.638;-2.020;2022-07-29T04:07:49;101382.38;;;22.13;68.81
53960;BME280;39866;48.638;-2.020;2022-07-29T04:10:15;101384.09;;;22.14;68.84
53960;BME280;39866;48.638;-2.020;2022-07-29T04:12:41;101378.84;;;22.11;68.75
53960;BME280;39866;48.638;-2.020;2022-07-29T04:15:07;101378.47;;;22.17;68.68
53960;BME280;39866;48.638;-2.020;2022-07-29T04:17:32;101381.66;;;22.10;68.35
53960;BME280;39866;48.638;-2.020;2022-07-29T04:19:58;101380.78;;;22.09;68.63
53960;BME280;39866;48.638;-2.020;2022-07-29T04:22:23;101380.31;;;22.02;69.08
53960;BME280;39866;48.638;-2.020;2022-07-29T04:24:48;101383.13;;;22.15;69.10
53960;BME280;39866;48.638;-2.020;2022-07-29T04:27:13;101383.56;;;22.22;69.21
53960;BME280;39866;48.638;-2.020;2022-07-29T04:29:39;101384.56;;;22.21;69.00
53960;BME280;39866;48.638;-2.020;2022-07-29T04:32:04;101384.25;;;22.11;68.83
53960;BME280;39866;48.638;-2.020;2022-07-29T04:34:29;101382.38;;;22.13;68.40
53960;BME280;39866;48.638;-2.020;2022-07-29T04:36:55;101385.44;;;22.21;68.14
53960;BME280;39866;48.638;-2.020;2022-07-29T04:39:20;101378.34;;;22.19;68.48
53960;BME280;39866;48.638;-2.020;2022-07-29T04:41:45;101383.69;;;22.06;68.90
53960;BME280;39866;48.638;-2.020;2022-07-29T04:44:12;101375.88;;;22.01;68.78
53960;BME280;39866;48.638;-2.020;2022-07-29T04:46:37;101377.56;;;21.90;69.06
53960;BME280;39866;48.638;-2.020;2022-07-29T04:49:03;101377.38;;;21.79;69.71
53960;BME280;39866;48.638;-2.020;2022-07-29T04:51:28;101385.03;;;21.86;69.19
53960;BME280;39866;48.638;-2.020;2022-07-29T04:53:53;101380.50;;;21.99;69.09
53960;BME280;39866;48.638;-2.020;2022-07-29T04:56:18;101383.53;;;21.95;68.98
53960;BME280;39866;48.638;-2.020;2022-07-29T04:58:43;101378.72;;;21.86;69.06
53960;BME280;39866;48.638;-2.020;2022-07-29T05:01:09;101383.22;;;21.99;69.02
53960;BME280;39866;48.638;-2.020;2022-07-29T05:03:34;101385.50;;;21.93;68.95
53960;BME280;39866;48.638;-2.020;2022-07-29T05:05:59;101388.97;;;21.95;69.55
53960;BME280;39866;48.638;-2.020;2022-07-29T05:08:24;101386.06;;;21.84;69.33
53960;BME280;39866;48.638;-2.020;2022-07-29T05:10:50;101388.22;;;21.79;69.89
53960;BME280;39866;48.638;-2.020;2022-07-29T05:13:15;101395.38;;;21.80;70.06
53960;BME280;39866;48.638;-2.020;2022-07-29T05:15:41;101398.88;;;21.82;70.30
53960;BME280;39866;48.638;-2.020;2022-07-29T05:18:06;101398.38;;;21.89;70.16
53960;BME280;39866;48.638;-2.020;2022-07-29T05:20:31;101398.69;;;21.85;70.30
53960;BME280;39866;48.638;-2.020;2022-07-29T05:22:58;101413.00;;;21.87;70.57
53960;BME280;39866;48.638;-2.020;2022-07-29T05:25:27;101411.63;;;21.80;70.24
53960;BME280;39866;48.638;-2.020;2022-07-29T05:27:52;101411.25;;;21.86;69.85
53960;BME280;39866;48.638;-2.020;2022-07-29T05:30:18;101411.44;;;21.83;70.49
53960;BME280;39866;48.638;-2.020;2022-07-29T05:32:43;101409.16;;;21.76;70.26
53960;BME280;39866;48.638;-2.020;2022-07-29T05:35:09;101412.81;;;21.90;70.06
53960;BME280;39866;48.638;-2.020;2022-07-29T05:37:34;101419.09;;;21.90;70.17
53960;BME280;39866;48.638;-2.020;2022-07-29T05:39:59;101417.16;;;21.92;69.81
53960;BME280;39866;48.638;-2.020;2022-07-29T05:42:25;101414.81;;;22.00;69.86
53960;BME280;39866;48.638;-2.020;2022-07-29T05:44:50;101412.91;;;21.88;70.72
53960;BME280;39866;48.638;-2.020;2022-07-29T05:47:16;101416.91;;;22.10;70.13
53960;BME280;39866;48.638;-2.020;2022-07-29T05:49:41;101416.44;;;22.17;69.58
53960;BME280;39866;48.638;-2.020;2022-07-29T05:52:06;101426.72;;;21.98;70.23
53960;BME280;39866;48.638;-2.020;2022-07-29T05:54:31;101426.72;;;21.98;70.09
53960;BME280;39866;48.638;-2.020;2022-07-29T05:56:56;101420.38;;;21.85;70.61
53960;BME280;39866;48.638;-2.020;2022-07-29T05:59:22;101418.34;;;21.88;70.44
53960;BME280;39866;48.638;-2.020;2022-07-29T06:01:47;101423.84;;;21.87;70.58
53960;BME280;39866;48.638;-2.020;2022-07-29T06:04:12;101429.06;;;21.90;70.31
53960;BME280;39866;48.638;-2.020;2022-07-29T06:06:37;101427.09;;;21.92;70.57
53960;BME280;39866;48.638;-2.020;2022-07-29T06:09:03;101434.28;;;21.93;70.71
53960;BME280;39866;48.638;-2.020;2022-07-29T06:11:28;101425.19;;;21.94;70.54
53960;BME280;39866;48.638;-2.020;2022-07-29T06:13:54;101428.44;;;21.99;69.50
53960;BME280;39866;48.638;-2.020;2022-07-29T06:16:19;101419.34;;;22.00;69.55
53960;BME280;39866;48.638;-2.020;2022-07-29T06:18:44;101426.63;;;22.14;69.06
53960;BME280;39866;48.638;-2.020;2022-07-29T06:21:09;101423.41;;;22.21;68.78
53960;BME280;39866;48.638;-2.020;2022-07-29T06:23:36;101430.78;;;22.32;68.28
53960;BME280;39866;48.638;-2.020;2022-07-29T06:26:01;101431.16;;;22.40;68.07
53960;BME280;39866;48.638;-2.020;2022-07-29T06:28:27;101435.41;;;22.44;68.00
53960;BME280;39866;48.638;-2.020;2022-07-29T06:30:53;101436.50;;;22.42;67.96
53960;BME280;39866;48.638;-2.020;2022-07-29T06:33:18;101439.44;;;22.52;67.94
53960;BME280;39866;48.638;-2.020;2022-07-29T06:35:43;101444.25;;;22.73;67.05
53960;BME280;39866;48.638;-2.020;2022-07-29T06:38:09;101448.75;;;22.74;66.76
53960;BME280;39866;48.638;-2.020;2022-07-29T06:40:36;101451.13;;;22.66;66.78
53960;BME280;39866;48.638;-2.020;2022-07-29T06:43:20;101447.47;;;22.53;67.00
53960;BME280;39866;48.638;-2.020;2022-07-29T06:45:45;101454.91;;;22.37;66.95
53960;BME280;39866;48.638;-2.020;2022-07-29T06:48:11;101450.44;;;22.36;66.96
53960;BME280;39866;48.638;-2.020;2022-07-29T06:50:36;101447.75;;;22.36;66.50
53960;BME280;39866;48.638;-2.020;2022-07-29T06:53:01;101455.69;;;22.39;66.03
53960;BME280;39866;48.638;-2.020;2022-07-29T06:55:27;101457.63;;;22.37;66.08
53960;BME280;39866;48.638;-2.020;2022-07-29T06:57:52;101461.16;;;22.52;65.48
53960;BME280;39866;48.638;-2.020;2022-07-29T07:00:17;101460.75;;;22.58;64.54
53960;BME280;39866;48.638;-2.020;2022-07-29T07:02:42;101466.09;;;22.45;64.41
53960;BME280;39866;48.638;-2.020;2022-07-29T07:05:08;101455.56;;;22.40;63.81
53960;BME280;39866;48.638;-2.020;2022-07-29T07:07:33;101461.22;;;22.37;62.78
53960;BME280;39866;48.638;-2.020;2022-07-29T07:09:58;101467.41;;;22.39;62.24
53960;BME280;39866;48.638;-2.020;2022-07-29T07:12:23;101463.63;;;22.42;61.98
53960;BME280;39866;48.638;-2.020;2022-07-29T07:14:48;101472.47;;;22.58;61.71
53960;BME280;39866;48.638;-2.020;2022-07-29T07:17:14;101480.34;;;22.21;60.59
53960;BME280;39866;48.638;-2.020;2022-07-29T07:19:39;101475.88;;;22.20;60.41
53960;BME280;39866;48.638;-2.020;2022-07-29T07:22:04;101476.91;;;22.32;60.73
53960;BME280;39866;48.638;-2.020;2022-07-29T07:24:29;101477.38;;;22.39;60.97
53960;BME280;39866;48.638;-2.020;2022-07-29T07:26:55;101482.25;;;22.34;61.03
53960;BME280;39866;48.638;-2.020;2022-07-29T07:29:20;101487.63;;;22.21;61.34
53960;BME280;39866;48.638;-2.020;2022-07-29T07:31:45;101492.88;;;22.37;61.25
53960;BME280;39866;48.638;-2.020;2022-07-29T07:34:10;101493.72;;;22.52;61.19
53960;BME280;39866;48.638;-2.020;2022-07-29T07:36:36;101491.13;;;22.50;63.02
53960;BME280;39866;48.638;-2.020;2022-07-29T07:39:01;101486.88;;;22.46;63.96
53960;BME280;39866;48.638;-2.020;2022-07-29T07:41:27;101489.59;;;22.32;64.92
53960;BME280;39866;48.638;-2.020;2022-07-29T07:43:52;101495.75;;;22.21;64.72
53960;BME280;39866;48.638;-2.020;2022-07-29T07:46:17;101484.09;;;22.33;64.73
53960;BME280;39866;48.638;-2.020;2022-07-29T07:48:43;101496.50;;;22.23;64.84
53960;BME280;39866;48.638;-2.020;2022-07-29T07:51:08;101493.44;;;22.15;64.11
53960;BME280;39866;48.638;-2.020;2022-07-29T07:53:33;101480.28;;;22.36;63.98
53960;BME280;39866;48.638;-2.020;2022-07-29T07:55:59;101491.16;;;22.36;64.18
53960;BME280;39866;48.638;-2.020;2022-07-29T07:58:24;101497.25;;;22.39;63.87
53960;BME280;39866;48.638;-2.020;2022-07-29T08:00:49;101499.97;;;22.39;62.73
53960;BME280;39866;48.638;-2.020;2022-07-29T08:03:14;101501.25;;;22.34;62.27
53960;BME280;39866;48.638;-2.020;2022-07-29T08:05:40;101509.44;;;22.46;60.54
53960;BME280;39866;48.638;-2.020;2022-07-29T08:08:05;101503.72;;;22.37;60.32
53960;BME280;39866;48.638;-2.020;2022-07-29T08:10:31;101510.63;;;22.42;60.42
53960;BME280;39866;48.638;-2.020;2022-07-29T08:13:14;101510.97;;;22.50;60.22
53960;BME280;39866;48.638;-2.020;2022-07-29T08:15:40;101515.94;;;22.44;60.39
53960;BME280;39866;48.638;-2.020;2022-07-29T08:18:06;101509.13;;;22.51;60.63
53960;BME280;39866;48.638;-2.020;2022-07-29T08:20:31;101517.28;;;22.51;60.13
53960;BME280;39866;48.638;-2.020;2022-07-29T08:22:58;101514.13;;;22.57;59.92
53960;BME280;39866;48.638;-2.020;2022-07-29T08:25:23;101517.66;;;22.45;60.89
53960;BME280;39866;48.638;-2.020;2022-07-29T08:27:49;101518.91;;;22.54;61.06
53960;BME280;39866;48.638;-2.020;2022-07-29T08:30:14;101521.63;;;22.54;61.66
53960;BME280;39866;48.638;-2.020;2022-07-29T08:32:39;101522.06;;;22.60;62.06
53960;BME280;39866;48.638;-2.020;2022-07-29T08:35:05;101517.00;;;22.68;61.39
53960;BME280;39866;48.638;-2.020;2022-07-29T08:37:30;101516.38;;;22.78;60.95
53960;BME280;39866;48.638;-2.020;2022-07-29T08:39:55;101517.88;;;22.42;60.13
53960;BME280;39866;48.638;-2.020;2022-07-29T08:42:20;101523.44;;;22.53;60.15
53960;BME280;39866;48.638;-2.020;2022-07-29T08:44:46;101518.84;;;22.68;60.13
53960;BME280;39866;48.638;-2.020;2022-07-29T08:47:13;101520.19;;;22.75;60.43
53960;BME280;39866;48.638;-2.020;2022-07-29T08:49:39;101526.31;;;22.64;60.99
53960;BME280;39866;48.638;-2.020;2022-07-29T08:52:04;101524.13;;;22.84;60.80
53960;BME280;39866;48.638;-2.020;2022-07-29T08:54:30;101526.16;;;22.80;61.95
53960;BME280;39866;48.638;-2.020;2022-07-29T08:56:55;101523.41;;;22.67;62.59
53960;BME280;39866;48.638;-2.020;2022-07-29T08:59:22;101525.06;;;22.97;62.86
53960;BME280;39866;48.638;-2.020;2022-07-29T09:01:48;101525.59;;;23.02;63.51
53960;BME280;39866;48.638;-2.020;2022-07-29T09:04:13;101524.41;;;23.06;63.21
53960;BME280;39866;48.638;-2.020;2022-07-29T09:06:42;101530.94;;;23.04;62.47
53960;BME280;39866;48.638;-2.020;2022-07-29T09:09:07;101529.44;;;23.12;63.71
53960;BME280;39866;48.638;-2.020;2022-07-29T09:11:32;101524.31;;;22.95;64.46
53960;BME280;39866;48.638;-2.020;2022-07-29T09:13:58;101526.38;;;23.04;64.08
53960;BME280;39866;48.638;-2.020;2022-07-29T09:16:23;101525.06;;;22.97;64.74
53960;BME280;39866;48.638;-2.020;2022-07-29T09:18:48;101527.44;;;23.02;64.62
53960;BME280;39866;48.638;-2.020;2022-07-29T09:21:14;101529.22;;;23.03;64.44
53960;BME280;39866;48.638;-2.020;2022-07-29T09:23:59;101525.06;;;22.97;64.89
53960;BME280;39866;48.638;-2.020;2022-07-29T09:26:27;101534.19;;;23.09;64.63
53960;BME280;39866;48.638;-2.020;2022-07-29T09:28:52;101535.66;;;22.87;64.79
53960;BME280;39866;48.638;-2.020;2022-07-29T09:31:18;101531.25;;;22.72;65.21
53960;BME280;39866;48.638;-2.020;2022-07-29T09:33:57;101533.50;;;22.92;64.43
53960;BME280;39866;48.638;-2.020;2022-07-29T09:36:22;101538.94;;;22.92;64.93
53960;BME280;39866;48.638;-2.020;2022-07-29T09:38:56;101544.38;;;22.92;64.88
53960;BME280;39866;48.638;-2.020;2022-07-29T09:41:21;101543.06;;;22.98;64.83
53960;BME280;39866;48.638;-2.020;2022-07-29T09:43:57;101544.31;;;23.07;64.06
53960;BME280;39866;48.638;-2.020;2022-07-29T09:46:22;101545.50;;;23.03;64.20
53960;BME280;39866;48.638;-2.020;2022-07-29T09:51:32;101546.56;;;23.00;63.66
53960;BME280;39866;48.638;-2.020;2022-07-29T09:53:57;101550.03;;;23.02;64.09
53960;BME280;39866;48.638;-2.020;2022-07-29T09:56:40;101545.44;;;23.30;64.00
53960;BME280;39866;48.638;-2.020;2022-07-29T09:59:06;101559.88;;;23.43;64.92
53960;BME280;39866;48.638;-2.020;2022-07-29T10:01:32;101566.44;;;23.53;65.10
53960;BME280;39866;48.638;-2.020;2022-07-29T10:03:57;101565.03;;;23.60;64.96
53960;BME280;39866;48.638;-2.020;2022-07-29T10:06:22;101557.75;;;23.61;64.76
53960;BME280;39866;48.638;-2.020;2022-07-29T10:08:48;101564.22;;;23.72;64.77
53960;BME280;39866;48.638;-2.020;2022-07-29T10:11:15;101564.41;;;23.82;64.35
53960;BME280;39866;48.638;-2.020;2022-07-29T10:13:41;101567.13;;;23.69;64.34
53960;BME280;39866;48.638;-2.020;2022-07-29T10:16:06;101563.44;;;23.70;64.59
53960;BME280;39866;48.638;-2.020;2022-07-29T10:18:32;101566.16;;;23.70;64.22
53960;BME280;39866;48.638;-2.020;2022-07-29T10:20:57;101571.44;;;23.59;64.18
53960;BME280;39866;48.638;-2.020;2022-07-29T10:23:23;101570.72;;;23.70;63.95
53960;BME280;39866;48.638;-2.020;2022-07-29T10:25:49;101571.91;;;23.66;63.82
53960;BME280;39866;48.638;-2.020;2022-07-29T10:28:14;101575.03;;;23.60;64.29
53960;BME280;39866;48.638;-2.020;2022-07-29T10:30:39;101571.75;;;23.55;64.35
53960;BME280;39866;48.638;-2.020;2022-07-29T10:33:21;101582.31;;;23.59;64.31
53960;BME280;39866;48.638;-2.020;2022-07-29T10:41:18;101591.59;;;23.95;63.22
53960;BME280;39866;48.638;-2.020;2022-07-29T10:44:04;101588.84;;;24.08;62.75
53960;BME280;39866;48.638;-2.020;2022-07-29T10:46:34;101590.28;;;23.88;62.80
53960;BME280;39866;48.638;-2.020;2022-07-29T10:59:39;101589.66;;;23.97;61.94
53960;BME280;39866;48.638;-2.020;2022-07-29T11:07:13;101597.25;;;24.17;60.97
53960;BME280;39866;48.638;-2.020;2022-07-29T11:09:41;101599.72;;;24.20;60.04
53960;BME280;39866;48.638;-2.020;2022-07-29T11:17:22;101598.75;;;24.21;58.32
53960;BME280;39866;48.638;-2.020;2022-07-29T11:19:48;101600.63;;;24.21;57.81
53960;BME280;39866;48.638;-2.020;2022-07-29T11:22:31;101602.03;;;24.01;59.64
53960;BME280;39866;48.638;-2.020;2022-07-29T11:25:29;101595.75;;;24.01;60.47
53960;BME280;39866;48.638;-2.020;2022-07-29T11:27:48;101601.81;;;24.04;60.91
53960;BME280;39866;48.638;-2.020;2022-07-29T11:30:14;101600.84;;;24.05;60.09
53960;BME280;39866;48.638;-2.020;2022-07-29T11:32:40;101603.91;;;24.01;57.74
53960;BME280;39866;48.638;-2.020;2022-07-29T11:35:21;101605.84;;;23.86;57.72
53960;BME280;39866;48.638;-2.020;2022-07-29T11:40:32;101599.19;;;24.03;55.62
53960;BME280;39866;48.638;-2.020;2022-07-29T11:42:57;101609.97;;;24.17;55.73
53960;BME280;39866;48.638;-2.020;2022-07-29T11:45:23;101603.88;;;24.26;56.16
53960;BME280;39866;48.638;-2.020;2022-07-29T11:47:52;101608.63;;;24.35;57.05
53960;BME280;39866;48.638;-2.020;2022-07-29T11:50:32;101609.50;;;24.36;56.94
53960;BME280;39866;48.638;-2.020;2022-07-29T11:52:57;101617.13;;;24.31;58.20
53960;BME280;39866;48.638;-2.020;2022-07-29T11:55:23;101620.47;;;24.60;58.02
53960;BME280;39866;48.638;-2.020;2022-07-29T12:00:24;101616.44;;;24.53;58.82
53960;BME280;39866;48.638;-2.020;2022-07-29T12:02:50;101623.88;;;24.51;59.39
53960;BME280;39866;48.638;-2.020;2022-07-29T12:05:15;101626.78;;;24.60;59.18
53960;BME280;39866;48.638;-2.020;2022-07-29T12:07:41;101627.00;;;24.57;59.32
53960;BME280;39866;48.638;-2.020;2022-07-29T12:10:06;101629.56;;;24.22;60.44
53960;BME280;39866;48.638;-2.020;2022-07-29T12:12:32;101639.56;;;24.47;60.14
53960;BME280;39866;48.638;-2.020;2022-07-29T12:14:58;101633.72;;;24.64;59.71
53960;BME280;39866;48.638;-2.020;2022-07-29T12:17:36;101633.34;;;24.82;59.79
53960;BME280;39866;48.638;-2.020;2022-07-29T12:20:03;101627.28;;;24.78;59.81
53960;BME280;39866;48.638;-2.020;2022-07-29T12:22:35;101629.72;;;24.70;60.54
53960;BME280;39866;48.638;-2.020;2022-07-29T12:25:08;101632.69;;;24.54;61.28
53960;BME280;39866;48.638;-2.020;2022-07-29T12:27:34;101629.00;;;24.42;61.67
53960;BME280;39866;48.638;-2.020;2022-07-29T12:30:01;101631.38;;;24.34;61.48
53960;BME280;39866;48.638;-2.020;2022-07-29T12:32:37;101625.84;;;24.23;60.86
53960;BME280;39866;48.638;-2.020;2022-07-29T12:35:12;101624.09;;;24.48;61.37
53960;BME280;39866;48.638;-2.020;2022-07-29T12:37:40;101625.25;;;24.56;61.51
53960;BME280;39866;48.638;-2.020;2022-07-29T12:40:06;101620.59;;;24.58;61.04
53960;BME280;39866;48.638;-2.020;2022-07-29T12:42:32;101618.16;;;24.66;61.20
53960;BME280;39866;48.638;-2.020;2022-07-29T12:44:57;101613.31;;;24.83;60.02
53960;BME280;39866;48.638;-2.020;2022-07-29T12:47:23;101607.94;;;24.70;60.24
53960;BME280;39866;48.638;-2.020;2022-07-29T12:49:49;101609.69;;;24.58;60.81
53960;BME280;39866;48.638;-2.020;2022-07-29T12:52:30;101613.53;;;24.43;60.81
53960;BME280;39866;48.638;-2.020;2022-07-29T12:54:56;101621.50;;;24.46;61.27
53960;BME280;39866;48.638;-2.020;2022-07-29T12:57:21;101615.41;;;24.30;61.38
53960;BME280;39866;48.638;-2.020;2022-07-29T13:00:00;101625.81;;;24.36;61.96
53960;BME280;39866;48.638;-2.020;2022-07-29T13:02:25;101629.88;;;24.17;61.89
53960;BME280;39866;48.638;-2.020;2022-07-29T13:05:00;101621.63;;;24.06;62.75
53960;BME280;39866;48.638;-2.020;2022-07-29T13:07:26;101620.19;;;24.26;61.93
53960;BME280;39866;48.638;-2.020;2022-07-29T13:09:52;101627.56;;;24.37;61.93
53960;BME280;39866;48.638;-2.020;2022-07-29T13:12:17;101630.53;;;24.21;62.82
53960;BME280;39866;48.638;-2.020;2022-07-29T13:14:43;101627.38;;;24.27;62.81
53960;BME280;39866;48.638;-2.020;2022-07-29T13:17:13;101622.06;;;24.38;61.39
53960;BME280;39866;48.638;-2.020;2022-07-29T13:22:05;101626.50;;;24.76;61.32
53960;BME280;39866;48.638;-2.020;2022-07-29T13:24:31;101624.88;;;24.74;59.88
53960;BME280;39866;48.638;-2.020;2022-07-29T13:26:56;101630.91;;;24.90;60.21